createdAt,value
2018-08-18T00:01:37.715Z,24.96
2018-08-18T00:04:20.157Z,25.34
2018-08-18T00:06:48.666Z,25.37
2018-08-18T00:09:17.438Z,25.14
2018-08-18T00:11:45.810Z,25.82
2018-08-18T00:14:14.118Z,25.41
2018-08-18T00:16:42.567Z,24.92
2018-08-18T00:19:11.001Z,25.30
2018-08-18T00:21:39.416Z,25.22
2018-08-18T00:24:10.531Z,24.78
2018-08-18T00:26:38.894Z,25.26
2018-08-18T00:29:08.834Z,25.55
2018-08-18T00:31:41.480Z,25.87
2018-08-18T00:34:09.768Z,25.88
2018-08-18T00:36:38.152Z,25.50
2018-08-18T00:39:09.137Z,25.35
2018-08-18T00:41:38.292Z,24.89
2018-08-18T00:44:07.766Z,25.19
2018-08-18T00:46:36.207Z,24.97
2018-08-18T00:49:04.840Z,25.30
2018-08-18T00:51:34.957Z,24.82
2018-08-18T00:54:05.256Z,24.53
2018-08-18T00:56:38.964Z,25.20
2018-08-18T00:59:07.562Z,24.91
2018-08-18T01:01:36.125Z,25.05
2018-08-18T01:04:06.532Z,25.53
2018-08-18T01:06:37.225Z,25.03
2018-08-18T01:09:10.345Z,24.95
2018-08-18T01:11:38.920Z,24.84
2018-08-18T01:14:15.734Z,24.86
2018-08-18T01:16:49.294Z,25.33
2018-08-18T01:19:18.242Z,24.94
2018-08-18T01:22:02.270Z,24.87
2018-08-18T01:24:30.788Z,24.63
2018-08-18T01:27:02.352Z,25.02
2018-08-18T01:29:30.863Z,25.30
2018-08-18T01:31:59.462Z,24.98
2018-08-18T01:34:27.911Z,24.39
2018-08-18T01:36:57.499Z,25.01
2018-08-18T01:39:25.929Z,25.22
2018-08-18T01:41:54.275Z,24.73
2018-08-18T01:44:23.827Z,24.88
2018-08-18T01:46:53.225Z,25.04
2018-08-18T01:49:39.723Z,25.09
2018-08-18T01:52:15.418Z,24.62
2018-08-18T01:54:45.171Z,25.02
2018-08-18T01:57:14.718Z,24.71
2018-08-18T01:59:45.599Z,25.44
2018-08-18T02:02:17.668Z,25.21
2018-08-18T02:04:46.812Z,24.73
2018-08-18T02:07:21.737Z,25.37
2018-08-18T02:09:50.150Z,25.44
2018-08-18T02:12:18.611Z,25.23
2018-08-18T02:14:47.587Z,25.42
2018-08-18T02:17:34.982Z,25.64
2018-08-18T02:20:03.440Z,25.59
2018-08-18T02:22:32.474Z,25.51
2018-08-18T02:25:00.819Z,25.18
2018-08-18T02:27:29.334Z,25.78
2018-08-18T02:30:09.115Z,25.47
2018-08-18T02:32:38.682Z,25.63
2018-08-18T02:35:08.009Z,25.26
2018-08-18T02:37:36.703Z,24.77
2018-08-18T02:40:12.097Z,24.98
2018-08-18T02:42:40.460Z,24.67
2018-08-18T02:45:10.004Z,24.58
2018-08-18T02:47:38.511Z,24.75
2018-08-18T02:50:07.983Z,25.22
2018-08-18T02:52:37.076Z,25.47
2018-08-18T02:55:07.867Z,25.56
2018-08-18T02:57:37.436Z,25.44
2018-08-18T03:00:26.826Z,25.57
2018-08-18T03:02:55.141Z,25.22
2018-08-18T03:05:23.708Z,25.71
2018-08-18T03:07:53.044Z,25.67
2018-08-18T03:10:27.293Z,25.53
2018-08-18T03:13:00.379Z,25.56
2018-08-18T03:16:13.697Z,25.62
2018-08-18T03:18:49.215Z,25.70
2018-08-18T03:21:18.555Z,25.55
2018-08-18T03:23:58.754Z,25.27
2018-08-18T03:26:48.960Z,25.09
2018-08-18T03:29:17.897Z,24.98
2018-08-18T03:31:46.792Z,24.86
2018-08-18T03:34:15.431Z,24.83
2018-08-18T03:36:49.579Z,24.78
2018-08-18T03:39:26.134Z,24.55
2018-08-18T03:41:56.810Z,24.73
2018-08-18T03:44:25.213Z,24.60
2018-08-18T03:46:54.183Z,24.76
2018-08-18T03:49:22.842Z,24.65
2018-08-18T03:51:52.373Z,24.64
2018-08-18T03:54:20.742Z,24.68
2018-08-18T03:56:49.547Z,24.36
2018-08-18T03:59:17.960Z,24.35
2018-08-18T04:01:50.231Z,24.34
2018-08-18T04:04:19.424Z,24.53
2018-08-18T04:06:48.866Z,23.99
2018-08-18T04:09:19.220Z,24.18
2018-08-18T04:11:47.644Z,24.45
2018-08-18T04:14:19.685Z,24.01
2018-08-18T04:16:49.326Z,24.07
2018-08-18T04:19:19.471Z,23.91
2018-08-18T04:21:48.751Z,23.71
2018-08-18T04:24:17.620Z,24.37
2018-08-18T04:26:50.848Z,23.88
2018-08-18T04:29:21.374Z,24.17
2018-08-18T04:31:49.752Z,24.08
2018-08-18T04:34:18.121Z,23.85
2018-08-18T04:36:46.541Z,23.85
2018-08-18T04:39:15.327Z,24.42
2018-08-18T04:41:44.017Z,24.29
2018-08-18T04:44:12.402Z,24.31
2018-08-18T04:46:40.804Z,24.16
2018-08-18T04:49:09.214Z,24.17
2018-08-18T04:51:37.543Z,24.48
2018-08-18T04:54:06.358Z,23.82
2018-08-18T04:56:34.772Z,23.74
2018-08-18T04:59:03.217Z,24.01
2018-08-18T05:01:31.603Z,24.35
2018-08-18T05:04:05.476Z,24.16
2018-08-18T05:06:34.815Z,24.63
2018-08-18T05:09:05.238Z,24.20
2018-08-18T05:11:33.685Z,24.08
2018-08-18T05:14:01.995Z,24.37
2018-08-18T05:16:30.384Z,24.74
2018-08-18T05:18:58.757Z,25.01
2018-08-18T05:21:27.480Z,24.17
2018-08-18T05:23:55.860Z,24.66
2018-08-18T05:26:24.558Z,24.85
2018-08-18T05:28:52.884Z,24.91
2018-08-18T05:31:22.087Z,24.81
2018-08-18T05:33:50.665Z,25.10
2018-08-18T05:39:09.831Z,24.82
2018-08-18T05:41:38.333Z,24.86
2018-08-18T05:44:06.850Z,25.56
2018-08-18T05:46:35.331Z,25.17
2018-08-18T05:49:11.857Z,25.35
2018-08-18T05:51:43.134Z,25.06
2018-08-18T05:54:13.267Z,25.42
2018-08-18T05:56:44.070Z,25.54
2018-08-18T05:59:12.445Z,24.50
2018-08-18T06:01:41.455Z,24.31
2018-08-18T06:04:13.840Z,25.06
2018-08-18T06:06:43.044Z,25.80
2018-08-18T06:09:12.604Z,25.64
2018-08-18T06:11:41.794Z,25.68
2018-08-18T06:14:11.579Z,26.30
2018-08-18T06:16:40.412Z,26.02
2018-08-18T06:19:08.935Z,26.00
2018-08-18T06:21:37.904Z,26.27
2018-08-18T06:24:06.501Z,26.57
2018-08-18T06:26:34.875Z,26.38
2018-08-18T06:29:03.173Z,26.20
2018-08-18T06:31:31.814Z,25.90
2018-08-18T06:34:00.564Z,26.63
2018-08-18T06:36:30.654Z,26.42
2018-08-18T06:38:59.244Z,25.82
2018-08-18T06:41:27.774Z,26.91
2018-08-18T06:43:56.049Z,26.20
2018-08-18T06:46:24.366Z,26.35
2018-08-18T06:48:52.836Z,26.45
2018-08-18T06:51:21.264Z,26.56
2018-08-18T06:53:49.830Z,26.84
2018-08-18T06:56:18.149Z,26.12
2018-08-18T06:58:46.574Z,26.97
2018-08-18T07:01:14.959Z,27.24
2018-08-18T07:03:44.868Z,25.83
2018-08-18T07:06:14.438Z,26.12
2018-08-18T07:08:48.161Z,26.70
2018-08-18T07:11:16.654Z,27.35
2018-08-18T07:13:46.457Z,27.43
2018-08-18T07:16:15.431Z,26.96
2018-08-18T07:18:44.599Z,27.24
2018-08-18T07:21:13.189Z,27.41
2018-08-18T07:23:41.567Z,27.53
2018-08-18T07:26:10.043Z,27.65
2018-08-18T07:28:38.472Z,27.02
2018-08-18T07:31:06.926Z,27.38
2018-08-18T07:33:35.291Z,27.89
2018-08-18T07:36:03.691Z,27.41
2018-08-18T07:38:32.066Z,27.43
2018-08-18T07:41:00.601Z,27.02
2018-08-18T07:43:32.340Z,27.21
2018-08-18T07:46:02.296Z,27.92
2018-08-18T07:48:30.662Z,27.28
2018-08-18T07:50:59.068Z,26.88
2018-08-18T07:53:27.630Z,27.03
2018-08-18T07:55:55.985Z,27.64
2018-08-18T07:58:25.760Z,27.68
2018-08-18T08:00:56.971Z,28.21
2018-08-18T08:03:25.287Z,28.28
2018-08-18T08:05:53.613Z,28.32
2018-08-18T08:08:23.282Z,28.81
2018-08-18T08:10:53.845Z,29.28
2018-08-18T08:13:22.180Z,29.70
2018-08-18T08:15:50.507Z,30.26
2018-08-18T08:18:19.485Z,30.33
2018-08-18T08:20:47.773Z,30.76
2018-08-18T08:23:16.203Z,30.85
2018-08-18T08:25:44.515Z,30.23
2018-08-18T08:28:13.181Z,30.60
2018-08-18T08:30:41.578Z,30.87
2018-08-18T08:33:10.136Z,30.28
2018-08-18T08:35:39.360Z,29.73
2018-08-18T08:38:07.705Z,29.99
2018-08-18T08:40:36.875Z,30.32
2018-08-18T08:43:05.496Z,29.59
2018-08-18T08:45:33.813Z,28.64
2018-08-18T08:48:02.282Z,28.40
2018-08-18T08:50:30.945Z,29.41
2018-08-18T08:52:59.387Z,30.41
2018-08-18T08:55:28.874Z,30.85
2018-08-18T08:57:57.275Z,29.99
2018-08-18T09:00:25.722Z,29.95
2018-08-18T09:02:54.117Z,30.51
2018-08-18T09:05:22.515Z,30.10
2018-08-18T09:07:50.851Z,29.45
2018-08-18T09:10:19.352Z,30.25
2018-08-18T09:12:48.321Z,31.03
2018-08-18T09:15:17.552Z,30.51
2018-08-18T09:17:46.104Z,29.86
2018-08-18T09:20:18.345Z,29.01
2018-08-18T09:22:56.969Z,29.91
2018-08-18T09:25:28.129Z,30.96
2018-08-18T09:27:58.543Z,30.89
2018-08-18T09:30:28.180Z,30.03
2018-08-18T09:33:00.196Z,30.31
2018-08-18T09:35:28.754Z,29.10
2018-08-18T09:38:01.681Z,29.61
2018-08-18T09:40:32.451Z,28.97
2018-08-18T09:43:06.347Z,30.26
2018-08-18T09:45:34.733Z,30.30
2018-08-18T09:48:03.142Z,31.34
2018-08-18T09:50:31.498Z,31.54
2018-08-18T09:52:59.842Z,31.31
2018-08-18T09:55:28.421Z,30.85
2018-08-18T09:57:56.936Z,31.27
2018-08-18T10:00:30.738Z,32.05
2018-08-18T10:02:59.132Z,32.38
2018-08-18T10:05:27.585Z,31.77
2018-08-18T10:07:55.906Z,31.11
2018-08-18T10:10:24.249Z,30.98
2018-08-18T10:12:52.613Z,31.45
2018-08-18T10:15:21.010Z,32.63
2018-08-18T10:17:49.370Z,32.80
2018-08-18T10:20:17.761Z,32.34
2018-08-18T10:22:46.160Z,32.45
2018-08-18T10:25:14.563Z,32.56
2018-08-18T10:27:42.901Z,32.58
2018-08-18T10:30:11.306Z,31.92
2018-08-18T10:32:43.927Z,31.36
2018-08-18T10:35:14.884Z,30.93
2018-08-18T10:37:43.253Z,31.79
2018-08-18T10:40:11.845Z,32.63
2018-08-18T10:42:40.195Z,33.11
2018-08-18T10:45:08.555Z,33.31
2018-08-18T10:47:36.996Z,33.03
2018-08-18T10:50:15.442Z,33.71
2018-08-18T10:52:55.000Z,33.57
2018-08-18T10:55:24.292Z,33.79
2018-08-18T10:57:59.226Z,33.80
2018-08-18T11:00:28.843Z,33.69
2018-08-18T11:02:58.476Z,34.21
2018-08-18T11:05:27.700Z,32.23
2018-08-18T11:08:02.100Z,32.67
2018-08-18T11:10:31.964Z,32.98
2018-08-18T11:13:00.655Z,32.61
2018-08-18T11:15:29.133Z,33.44
2018-08-18T11:17:57.985Z,33.97
2018-08-18T11:20:28.644Z,34.25
2018-08-18T11:23:04.688Z,34.93
2018-08-18T11:25:39.273Z,35.17
2018-08-18T11:28:08.891Z,35.77
2018-08-18T11:30:37.327Z,35.61
2018-08-18T11:33:06.204Z,35.01
2018-08-18T11:35:34.966Z,35.14
2018-08-18T11:38:11.818Z,35.36
2018-08-18T11:40:40.136Z,34.40
2018-08-18T11:43:10.450Z,33.98
2018-08-18T11:45:39.849Z,35.24
2018-08-18T11:48:11.942Z,35.89
2018-08-18T11:50:40.808Z,35.98
2018-08-18T11:53:09.264Z,35.98
2018-08-18T11:55:37.930Z,36.81
2018-08-18T11:58:07.968Z,35.83
2018-08-18T12:00:45.547Z,37.30
2018-08-18T12:03:15.117Z,38.13
2018-08-18T12:05:49.101Z,37.65
2018-08-18T12:08:18.672Z,39.30
2018-08-18T12:10:48.200Z,41.10
2018-08-18T12:13:16.760Z,39.18
2018-08-18T12:15:58.185Z,38.42
2018-08-18T12:18:29.416Z,40.57
2018-08-18T12:20:58.867Z,43.56
2018-08-18T12:23:27.621Z,45.46
2018-08-18T12:26:01.359Z,44.99
2018-08-18T12:28:35.106Z,46.83
2018-08-18T12:31:06.019Z,46.51
2018-08-18T12:33:35.043Z,47.89
2018-08-18T12:36:03.593Z,46.74
2018-08-18T12:38:32.692Z,47.58
2018-08-18T12:41:01.316Z,48.40
2018-08-18T12:43:40.159Z,48.51
2018-08-18T12:46:09.791Z,46.84
2018-08-18T12:48:41.470Z,45.61
2018-08-18T12:51:11.324Z,45.86
2018-08-18T12:53:45.069Z,44.72
2018-08-18T12:56:15.846Z,42.97
2018-08-18T12:58:44.537Z,44.33
2018-08-18T13:01:13.244Z,45.30
2018-08-18T13:03:41.543Z,46.53
2018-08-18T13:06:10.572Z,48.12
2018-08-18T13:08:39.300Z,47.62
2018-08-18T13:11:07.774Z,47.30
2018-08-18T13:13:36.302Z,46.92
2018-08-18T13:16:04.692Z,45.50
2018-08-18T13:18:33.783Z,46.98
2018-08-18T13:21:02.213Z,45.81
2018-08-18T13:23:30.568Z,47.93
2018-08-18T13:25:58.987Z,49.21
2018-08-18T13:28:27.443Z,50.65
2018-08-18T13:30:55.849Z,51.22
2018-08-18T13:33:25.387Z,51.23
2018-08-18T13:35:53.793Z,52.03
2018-08-18T13:38:30.829Z,50.50
2018-08-18T13:40:59.301Z,46.01
2018-08-18T13:43:43.017Z,45.78
2018-08-18T13:46:12.960Z,47.01
2018-08-18T13:48:52.223Z,49.45
2018-08-18T13:51:21.719Z,50.43
2018-08-18T13:53:53.178Z,48.77
2018-08-18T13:56:24.578Z,51.30
2018-08-18T13:58:54.409Z,51.49
2018-08-18T14:01:29.164Z,50.79
2018-08-18T14:03:57.545Z,48.73
2018-08-18T14:06:26.032Z,49.12
2018-08-18T14:09:00.157Z,50.69
2018-08-18T14:11:29.459Z,49.70
2018-08-18T14:13:59.770Z,49.47
2018-08-18T14:16:28.856Z,50.20
2018-08-18T14:18:57.268Z,50.35
2018-08-18T14:21:25.635Z,51.09
2018-08-18T14:23:54.490Z,51.85
2018-08-18T14:26:23.042Z,51.95
2018-08-18T14:28:51.356Z,50.51
2018-08-18T14:31:19.674Z,44.01
2018-08-18T14:33:48.079Z,42.03
2018-08-18T14:36:16.996Z,43.84
2018-08-18T14:38:46.736Z,47.00
2018-08-18T14:41:47.262Z,49.59
2018-08-18T14:44:15.671Z,51.00
2018-08-18T14:46:44.075Z,51.11
2018-08-18T14:49:12.346Z,52.00
2018-08-18T14:51:40.672Z,51.69
2018-08-18T14:54:09.350Z,51.09
2018-08-18T14:56:37.631Z,50.67
2018-08-18T14:59:06.313Z,52.34
2018-08-18T15:01:34.627Z,53.03
2018-08-18T15:04:03.666Z,51.43
2018-08-18T15:06:32.001Z,51.23
2018-08-18T15:09:00.526Z,50.08
2018-08-18T15:11:29.032Z,50.02
2018-08-18T15:13:57.443Z,50.18
2018-08-18T15:16:25.779Z,47.59
2018-08-18T15:18:55.171Z,47.76
2018-08-18T15:21:23.615Z,49.62
2018-08-18T15:23:52.007Z,49.05
2018-08-18T15:26:20.382Z,49.23
2018-08-18T15:28:48.783Z,48.12
2018-08-18T15:31:17.126Z,47.36
2018-08-18T15:33:46.067Z,46.42
2018-08-18T15:36:26.331Z,41.94
2018-08-18T15:38:54.680Z,41.48
2018-08-18T15:41:24.598Z,41.34
2018-08-18T15:43:53.312Z,42.73
2018-08-18T15:46:23.151Z,41.22
2018-08-18T15:48:51.841Z,42.51
2018-08-18T15:51:20.224Z,44.34
2018-08-18T15:53:53.932Z,45.76
2018-08-18T15:56:23.185Z,47.43
2018-08-18T15:58:52.204Z,47.62
2018-08-18T16:01:26.500Z,46.21
2018-08-18T16:03:55.468Z,46.71
2018-08-18T16:06:23.970Z,46.47
2018-08-18T16:08:52.962Z,45.81
2018-08-18T16:11:21.386Z,45.58
2018-08-18T16:13:49.953Z,45.03
2018-08-18T16:16:18.196Z,44.90
2018-08-18T16:18:47.106Z,46.27
2018-08-18T16:21:22.541Z,45.02
2018-08-18T16:23:51.209Z,42.89
2018-08-18T16:26:19.510Z,42.41
2018-08-18T16:28:47.904Z,42.35
2018-08-18T16:31:16.283Z,43.29
2018-08-18T16:33:44.679Z,43.92
2018-08-18T16:36:13.008Z,44.81
2018-08-18T16:38:41.623Z,43.52
2018-08-18T16:41:10.013Z,43.82
2018-08-18T16:43:38.671Z,44.27
2018-08-18T16:46:20.388Z,44.24
2018-08-18T16:48:49.256Z,42.25
2018-08-18T16:51:17.625Z,41.48
2018-08-18T16:53:46.075Z,41.19
2018-08-18T16:56:31.413Z,41.60
2018-08-18T16:59:00.816Z,42.02
2018-08-18T17:01:29.182Z,41.22
2018-08-18T17:09:42.013Z,40.10
2018-08-18T17:12:17.656Z,39.49
2018-08-18T17:14:46.011Z,40.24
2018-08-18T17:17:14.416Z,39.65
2018-08-18T17:33:57.186Z,34.05
2018-08-18T17:36:25.814Z,34.55
2018-08-18T17:38:54.949Z,34.14
2018-08-18T17:41:23.341Z,34.60
2018-08-18T17:43:51.668Z,33.69
2018-08-18T17:46:20.061Z,33.23
2018-08-18T17:48:53.252Z,33.79
2018-08-18T17:51:21.571Z,33.21
2018-08-18T17:53:54.571Z,32.98
2018-08-18T17:56:22.962Z,32.50
2018-08-18T17:58:51.495Z,33.02
2018-08-18T18:01:19.877Z,32.36
2018-08-18T18:03:48.202Z,32.03
2018-08-18T18:06:16.595Z,32.02
2018-08-18T18:08:44.893Z,32.42
2018-08-18T18:11:14.131Z,32.26
2018-08-18T18:13:42.468Z,32.21
2018-08-18T18:16:22.225Z,31.54
2018-08-18T18:18:50.652Z,31.63
2018-08-18T18:21:18.987Z,31.61
2018-08-18T18:23:47.299Z,31.18
2018-08-18T18:26:16.230Z,31.36
2018-08-18T18:28:44.610Z,31.07
2018-08-18T18:31:12.990Z,30.88
2018-08-18T18:33:43.057Z,30.90
2018-08-18T18:36:11.592Z,30.76
2018-08-18T18:38:55.074Z,30.86
2018-08-18T18:41:23.424Z,30.70
2018-08-18T18:44:00.268Z,30.18
2018-08-18T18:46:28.694Z,30.16
2018-08-18T18:48:57.264Z,30.23
2018-08-18T18:51:26.579Z,30.31
2018-08-18T18:53:57.108Z,30.38
2018-08-18T18:56:25.542Z,30.10
2018-08-18T18:58:54.128Z,30.31
2018-08-18T19:01:22.830Z,29.96
2018-08-18T19:03:51.237Z,30.00
2018-08-18T19:06:19.536Z,29.89
2018-08-18T19:08:58.227Z,30.01
2018-08-18T19:11:27.216Z,29.84
2018-08-18T19:13:56.259Z,29.87
2018-08-18T19:16:24.955Z,30.01
2018-08-18T19:18:53.316Z,29.95
2018-08-18T19:21:21.672Z,29.77
2018-08-18T19:23:50.052Z,29.71
2018-08-18T19:26:18.328Z,29.73
2018-08-18T19:28:46.901Z,29.63
2018-08-18T19:31:17.366Z,29.49
2018-08-18T19:33:45.792Z,29.51
2018-08-18T19:36:14.195Z,29.29
2018-08-18T19:38:42.590Z,29.04
2018-08-18T19:41:10.897Z,29.10
2018-08-18T19:43:39.293Z,29.10
2018-08-18T19:46:07.660Z,28.91
2018-08-18T19:48:35.988Z,29.04
2018-08-18T19:51:04.971Z,29.28
2018-08-18T19:53:34.768Z,29.04
2018-08-18T19:56:04.076Z,29.05
2018-08-18T19:58:33.232Z,29.21
2018-08-18T20:01:02.823Z,28.95
2018-08-18T20:03:31.589Z,29.10
2018-08-18T20:06:01.738Z,28.87
2018-08-18T20:08:30.190Z,29.10
2018-08-18T20:11:00.158Z,28.84
2018-08-18T20:13:29.922Z,29.06
2018-08-18T20:16:00.890Z,29.26
2018-08-18T20:18:29.281Z,28.86
2018-08-18T20:20:58.683Z,29.12
2018-08-18T20:23:27.158Z,29.21
2018-08-18T20:25:55.524Z,29.21
2018-08-18T20:28:23.830Z,28.92
2018-08-18T20:30:52.206Z,28.95
2018-08-18T20:33:20.601Z,29.08
2018-08-18T20:35:48.982Z,29.05
2018-08-18T20:38:17.447Z,29.01
2018-08-18T20:40:45.796Z,28.92
2018-08-18T20:43:14.223Z,28.77
2018-08-18T20:57:06.079Z,28.45
2018-08-18T20:59:34.429Z,28.42
2018-08-18T21:02:02.760Z,28.36
2018-08-18T21:04:31.192Z,28.42
2018-08-18T21:06:59.591Z,28.39
2018-08-18T21:09:29.897Z,28.58
2018-08-18T21:11:58.233Z,28.51
2018-08-18T21:14:29.364Z,28.60
2018-08-18T21:16:57.948Z,28.54
2018-08-18T21:19:27.280Z,28.48
2018-08-18T21:21:56.640Z,28.47
2018-08-18T21:24:25.105Z,28.49
2018-08-18T21:26:53.531Z,28.54
2018-08-18T21:29:23.877Z,28.62
2018-08-18T21:31:52.219Z,28.62
2018-08-18T21:34:21.146Z,28.56
2018-08-18T21:36:49.524Z,28.52
2018-08-18T21:39:17.914Z,28.53
2018-08-18T21:41:47.493Z,28.45
2018-08-18T21:44:16.325Z,28.32
2018-08-18T21:46:44.883Z,28.35
2018-08-18T21:49:13.594Z,28.35
2018-08-18T21:51:41.997Z,28.21
2018-08-18T21:54:10.383Z,28.22
2018-08-18T21:56:41.326Z,28.19
2018-08-18T21:59:10.974Z,28.16
2018-08-18T22:01:39.378Z,28.05
2018-08-18T22:04:08.394Z,28.17
2018-08-18T22:06:43.296Z,28.07
2018-08-18T22:09:27.869Z,28.09
2018-08-18T22:11:56.277Z,28.15
2018-08-18T22:14:24.606Z,28.17
2018-08-18T22:16:56.545Z,28.27
2018-08-18T22:19:25.270Z,28.26
2018-08-18T22:21:53.821Z,28.31
2018-08-18T22:24:22.377Z,28.22
2018-08-18T22:26:50.860Z,28.26
2018-08-18T22:29:23.432Z,28.19
2018-08-18T22:31:52.448Z,28.23
2018-08-18T22:34:20.851Z,28.12
2018-08-18T22:36:49.190Z,28.15
2018-08-18T22:39:18.713Z,28.10
2018-08-18T22:41:47.042Z,28.09
2018-08-18T22:44:15.406Z,28.06
2018-08-18T22:46:43.745Z,28.02
2018-08-18T22:49:12.087Z,27.93
2018-08-18T22:51:40.471Z,27.83
2018-08-18T22:54:08.824Z,28.03
2018-08-18T22:56:38.379Z,27.89
2018-08-18T22:59:08.094Z,27.83
2018-08-18T23:01:37.801Z,27.86
2018-08-18T23:05:44.336Z,27.83
2018-08-18T23:08:12.676Z,27.75
2018-08-18T23:10:41.620Z,27.84
2018-08-18T23:13:10.778Z,27.87
2018-08-18T23:15:39.090Z,27.73
2018-08-18T23:18:07.548Z,27.70
2018-08-18T23:20:36.174Z,27.75
2018-08-18T23:23:04.575Z,27.73
2018-08-18T23:25:34.144Z,27.71
2018-08-18T23:28:02.500Z,27.76
2018-08-18T23:30:36.069Z,27.56
2018-08-18T23:33:06.712Z,27.61
2018-08-18T23:35:35.166Z,27.64
2018-08-18T23:38:03.821Z,27.48
2018-08-18T23:40:33.146Z,27.50
2018-08-18T23:43:01.449Z,27.46
2018-08-18T23:45:36.898Z,27.41
2018-08-18T23:48:07.914Z,27.43
2018-08-18T23:50:37.504Z,27.39
2018-08-18T23:53:10.306Z,27.34
2018-08-18T23:55:48.828Z,27.19
2018-08-18T23:58:17.537Z,27.10
